createdAt,value
2023-04-08T00:01:35.510Z,4.96
2023-04-08T00:04:03.149Z,4.95
2023-04-08T00:06:44.090Z,4.95
2023-04-08T00:09:11.126Z,4.94
2023-04-08T00:11:56.769Z,4.94
2023-04-08T00:14:23.766Z,4.94
2023-04-08T00:16:50.891Z,4.91
2023-04-08T00:19:18.247Z,4.91
2023-04-08T00:21:48.608Z,4.96
2023-04-08T00:24:15.546Z,4.87
2023-04-08T00:26:45.296Z,4.85
2023-04-08T00:29:15.045Z,4.89
2023-04-08T00:31:48.016Z,4.88
2023-04-08T00:34:38.769Z,4.88
2023-04-08T00:37:05.645Z,4.88
2023-04-08T00:39:47.271Z,4.90
2023-04-08T00:42:14.149Z,4.93
2023-04-08T00:44:44.215Z,4.95
2023-04-08T00:47:17.765Z,4.90
2023-04-08T00:49:45.463Z,4.94
2023-04-08T00:52:15.551Z,4.94
2023-04-08T00:54:51.383Z,4.95
2023-04-08T00:57:18.724Z,4.93
2023-04-08T00:59:45.779Z,4.93
2023-04-08T01:02:50.780Z,4.92
2023-04-08T01:05:54.836Z,4.94
2023-04-08T01:11:21.488Z,4.83
2023-04-08T01:14:15.744Z,4.82
2023-04-08T01:16:52.766Z,4.82
2023-04-08T01:19:58.889Z,4.83
2023-04-08T01:23:27.770Z,4.82
2023-04-08T01:26:00.192Z,4.77
2023-04-08T01:28:53.788Z,4.79
2023-04-08T01:31:24.863Z,4.72
2023-04-08T01:34:09.027Z,4.73
2023-04-08T01:37:04.895Z,4.70
2023-04-08T01:39:50.526Z,4.72
2023-04-08T01:42:48.657Z,4.69
2023-04-08T01:45:18.311Z,4.68
2023-04-08T01:47:51.012Z,4.69
2023-04-08T01:50:20.824Z,4.67
2023-04-08T01:52:53.860Z,4.67
2023-04-08T01:55:21.726Z,4.68
2023-04-08T01:58:01.472Z,4.64
2023-04-08T02:00:51.440Z,4.67
2023-04-08T02:03:29.914Z,4.59
2023-04-08T02:05:56.904Z,4.61
2023-04-08T02:08:23.646Z,4.61
2023-04-08T02:10:50.335Z,4.56
2023-04-08T02:13:17.240Z,4.55
2023-04-08T02:16:03.218Z,4.55
2023-04-08T02:18:36.393Z,4.55
2023-04-08T02:21:15.747Z,4.51
2023-04-08T02:23:52.700Z,4.46
2023-04-08T02:26:26.911Z,4.38
2023-04-08T02:29:05.705Z,4.33
2023-04-08T02:31:35.416Z,4.35
2023-04-08T02:34:05.350Z,4.31
2023-04-08T02:36:40.222Z,4.29
2023-04-08T02:39:07.772Z,4.28
2023-04-08T02:41:35.966Z,4.29
2023-04-08T02:44:02.923Z,4.28
2023-04-08T02:46:32.658Z,4.24
2023-04-08T02:48:59.511Z,4.21
2023-04-08T02:51:26.502Z,4.19
2023-04-08T02:53:53.703Z,4.19
2023-04-08T02:56:21.823Z,4.17
2023-04-08T02:58:49.091Z,4.14
2023-04-08T03:01:17.962Z,4.12
2023-04-08T03:03:45.056Z,4.16
2023-04-08T03:06:12.118Z,4.20
2023-04-08T03:08:43.594Z,4.13
2023-04-08T03:11:10.360Z,4.17
2023-04-08T03:13:47.070Z,4.11
2023-04-08T03:16:15.281Z,4.22
2023-04-08T03:18:45.109Z,4.16
2023-04-08T03:21:12.045Z,4.16
2023-04-08T03:23:42.353Z,4.18
2023-04-08T03:26:12.588Z,4.18
2023-04-08T03:28:45.507Z,4.13
2023-04-08T03:31:13.515Z,4.12
2023-04-08T03:33:43.650Z,4.16
2023-04-08T03:36:13.157Z,4.18
2023-04-08T03:38:46.312Z,4.14
2023-04-08T03:41:13.022Z,4.12
2023-04-08T03:43:46.687Z,4.11
2023-04-08T03:46:16.594Z,4.13
2023-04-08T03:48:52.538Z,4.13
2023-04-08T03:51:19.609Z,4.12
2023-04-08T03:53:49.759Z,4.12
2023-04-08T03:56:27.052Z,4.13
2023-04-08T03:58:53.821Z,4.06
2023-04-08T04:01:23.548Z,4.05
2023-04-08T04:03:50.555Z,4.00
2023-04-08T04:06:17.440Z,4.01
2023-04-08T04:08:44.663Z,4.02
2023-04-08T04:11:14.997Z,4.04
2023-04-08T04:13:44.505Z,4.08
2023-04-08T04:16:13.663Z,4.03
2023-04-08T04:18:43.935Z,4.04
2023-04-08T04:21:12.073Z,4.04
2023-04-08T04:23:57.019Z,4.05
2023-04-08T04:26:23.835Z,4.03
2023-04-08T04:28:55.725Z,4.06
2023-04-08T04:31:35.004Z,4.00
2023-04-08T04:34:05.361Z,3.94
2023-04-08T04:36:59.215Z,3.89
2023-04-08T04:39:24.121Z,3.88
2023-04-08T04:41:51.058Z,3.90
2023-04-08T04:44:17.979Z,3.90
2023-04-08T04:47:03.973Z,3.90
2023-04-08T04:49:33.988Z,3.94
2023-04-08T04:52:01.049Z,3.93
2023-04-08T04:54:30.816Z,3.91
2023-04-08T04:57:00.998Z,3.92
2023-04-08T04:59:28.132Z,3.90
2023-04-08T05:01:57.817Z,3.88
2023-04-08T05:04:28.066Z,3.88
2023-04-08T05:06:55.138Z,3.92
2023-04-08T05:09:32.518Z,3.94
2023-04-08T05:12:09.005Z,4.00
2023-04-08T05:14:46.469Z,3.93
2023-04-08T05:17:13.411Z,3.99
2023-04-08T05:19:47.574Z,4.01
2023-04-08T05:22:14.435Z,3.93
2023-04-08T05:24:46.824Z,3.90
2023-04-08T05:27:13.694Z,3.82
2023-04-08T05:29:48.677Z,3.84
2023-04-08T05:32:21.622Z,3.83
2023-04-08T05:34:48.550Z,3.84
2023-04-08T05:37:18.073Z,3.89
2023-04-08T05:39:47.454Z,3.89
2023-04-08T05:42:14.279Z,3.94
2023-04-08T05:44:51.027Z,3.94
2023-04-08T05:47:21.562Z,4.00
2023-04-08T05:49:51.134Z,4.01
2023-04-08T05:52:20.555Z,4.02
2023-04-08T05:54:52.693Z,4.03
2023-04-08T05:57:21.822Z,4.07
2023-04-08T05:59:53.353Z,4.11
2023-04-08T06:02:20.271Z,4.16
2023-04-08T06:04:51.599Z,4.08
2023-04-08T06:07:20.841Z,4.10
2023-04-08T06:09:51.791Z,4.10
2023-04-08T06:12:27.741Z,4.16
2023-04-08T06:15:03.883Z,4.08
2023-04-08T06:17:48.682Z,4.14
2023-04-08T06:20:21.217Z,4.18
2023-04-08T06:22:48.000Z,4.21
2023-04-08T06:25:17.305Z,4.20
2023-04-08T06:28:06.111Z,4.23
2023-04-08T06:30:36.246Z,4.28
2023-04-08T06:33:05.608Z,4.31
2023-04-08T06:35:36.135Z,4.38
2023-04-08T06:38:03.607Z,4.45
2023-04-08T06:40:34.241Z,4.40
2023-04-08T06:43:03.896Z,4.45
2023-04-08T06:45:35.384Z,4.45
2023-04-08T06:48:02.588Z,4.48
2023-04-08T06:50:29.522Z,4.56
2023-04-08T06:53:01.465Z,4.57
2023-04-08T06:55:35.754Z,4.64
2023-04-08T06:58:06.913Z,4.68
2023-04-08T07:00:36.661Z,4.64
2023-04-08T07:03:33.948Z,4.71
2023-04-08T07:06:03.064Z,4.79
2023-04-08T07:09:03.193Z,4.85
2023-04-08T07:11:30.129Z,4.79
2023-04-08T07:14:27.042Z,4.84
2023-04-08T07:17:07.218Z,5.02
2023-04-08T07:19:59.704Z,5.10
2023-04-08T07:22:32.784Z,5.16
2023-04-08T07:26:09.139Z,5.29
2023-04-08T07:28:29.213Z,5.35
2023-04-08T07:31:28.069Z,5.41
2023-04-08T07:34:18.739Z,5.57
2023-04-08T07:37:02.825Z,5.78
2023-04-08T07:40:27.884Z,5.90
2023-04-08T07:43:32.210Z,5.81
2023-04-08T07:46:10.607Z,5.66
2023-04-08T07:53:13.051Z,5.44
2023-04-08T08:03:16.239Z,5.45
2023-04-08T08:06:27.455Z,5.45
2023-04-08T08:09:19.059Z,5.53
2023-04-08T08:11:49.597Z,5.60
2023-04-08T08:14:16.726Z,5.63
2023-04-08T08:16:59.169Z,5.54
2023-04-08T08:22:21.778Z,5.58
2023-04-08T08:25:02.193Z,5.73
2023-04-08T08:33:22.637Z,5.82
2023-04-08T08:35:52.030Z,5.83
2023-04-08T08:38:33.630Z,5.79
2023-04-08T08:41:13.584Z,5.77
2023-04-08T08:43:54.403Z,5.70
2023-04-08T08:46:27.080Z,5.69
2023-04-08T08:49:15.655Z,5.57
2023-04-08T08:52:36.647Z,5.49
2023-04-08T08:58:24.857Z,5.66
2023-04-08T09:00:57.096Z,5.71
2023-04-08T09:03:33.468Z,5.75
2023-04-08T09:06:27.900Z,5.79
2023-04-08T09:09:23.164Z,5.80
2023-04-08T09:12:06.944Z,5.92
2023-04-08T09:14:33.854Z,6.11
2023-04-08T09:17:12.125Z,6.25
2023-04-08T09:20:16.970Z,6.37
2023-04-08T09:23:26.198Z,6.68
2023-04-08T09:26:27.884Z,6.77
2023-04-08T09:29:26.103Z,6.89
2023-04-08T09:31:59.010Z,6.74
2023-04-08T09:38:05.372Z,6.19
2023-04-08T09:41:26.696Z,6.13
2023-04-08T09:44:19.927Z,6.15
2023-04-08T09:47:56.371Z,6.09
2023-04-08T09:51:44.913Z,6.20
2023-04-08T09:54:29.232Z,6.46
2023-04-08T09:57:35.976Z,6.65
2023-04-08T10:03:27.938Z,6.85
2023-04-08T10:06:08.610Z,7.21
2023-04-08T10:08:58.790Z,7.18
2023-04-08T10:11:30.448Z,7.07
2023-04-08T10:14:04.659Z,7.25
2023-04-08T10:16:37.105Z,7.07
2023-04-08T10:19:58.868Z,7.26
2023-04-08T10:22:34.727Z,7.03
2023-04-08T10:25:16.948Z,6.91
2023-04-08T10:30:57.442Z,6.80
2023-04-08T10:34:38.498Z,7.30
2023-04-08T10:37:16.117Z,7.17
2023-04-08T10:40:01.254Z,7.23
2023-04-08T10:46:25.111Z,7.57
2023-04-08T10:50:20.529Z,7.80
2023-04-08T10:52:55.909Z,7.76
2023-04-08T10:55:29.632Z,7.82
2023-04-08T10:58:09.404Z,7.79
2023-04-08T11:00:43.685Z,7.77
2023-04-08T11:03:32.680Z,7.81
2023-04-08T11:07:07.678Z,7.89
2023-04-08T11:09:34.538Z,7.81
2023-04-08T11:12:03.747Z,7.99
2023-04-08T11:14:33.118Z,7.94
2023-04-08T11:17:14.241Z,8.29
2023-04-08T11:19:47.205Z,8.55
2023-04-08T11:22:14.817Z,8.79
2023-04-08T11:24:49.905Z,8.89
2023-04-08T11:27:17.108Z,9.21
2023-04-08T11:29:47.379Z,9.54
2023-04-08T11:32:14.663Z,9.61
2023-04-08T11:34:47.582Z,9.71
2023-04-08T11:38:04.129Z,9.88
2023-04-08T11:40:27.490Z,10.03
2023-04-08T11:43:00.640Z,10.15
2023-04-08T11:45:33.254Z,10.32
2023-04-08T11:48:25.917Z,10.32
2023-04-08T11:51:12.396Z,10.36
2023-04-08T11:53:49.204Z,10.35
2023-04-08T11:56:23.484Z,10.12
2023-04-08T11:58:52.319Z,10.17
2023-04-08T12:01:29.064Z,10.19
2023-04-08T12:07:08.734Z,10.27
2023-04-08T12:09:38.670Z,10.07
2023-04-08T12:12:05.770Z,10.51
2023-04-08T12:14:38.162Z,10.71
2023-04-08T12:17:05.085Z,10.91
2023-04-08T12:19:33.532Z,11.11
2023-04-08T12:22:01.025Z,11.50
2023-04-08T12:24:29.792Z,11.40
2023-04-08T12:27:04.650Z,11.24
2023-04-08T12:29:32.151Z,11.10
2023-04-08T12:32:02.588Z,10.95
2023-04-08T12:34:29.372Z,10.89
2023-04-08T12:37:01.772Z,11.12
2023-04-08T12:39:28.764Z,11.09
2023-04-08T12:42:05.687Z,11.43
2023-04-08T12:44:32.513Z,11.65
2023-04-08T12:47:02.409Z,12.00
2023-04-08T12:49:49.301Z,11.87
2023-04-08T12:52:22.132Z,12.43
2023-04-08T12:55:01.484Z,12.93
2023-04-08T12:57:30.774Z,13.26
2023-04-08T13:00:14.323Z,13.53
2023-04-08T13:02:47.002Z,13.61
2023-04-08T13:05:19.711Z,13.78
2023-04-08T13:07:50.818Z,13.06
2023-04-08T13:10:28.219Z,13.45
2023-04-08T13:13:05.360Z,13.53
2023-04-08T13:15:45.534Z,12.54
2023-04-08T13:18:17.892Z,11.94
2023-04-08T13:20:44.676Z,11.99
2023-04-08T13:23:24.115Z,12.11
2023-04-08T13:25:51.452Z,11.57
2023-04-08T13:28:23.900Z,12.56
2023-04-08T13:30:51.132Z,13.23
2023-04-08T13:33:23.128Z,14.00
2023-04-08T13:35:50.005Z,14.21
2023-04-08T13:38:20.020Z,14.69
2023-04-08T13:40:52.524Z,15.38
2023-04-08T13:43:35.549Z,16.11
2023-04-08T13:46:07.428Z,16.21
2023-04-08T13:48:34.265Z,16.74
2023-04-08T13:51:04.163Z,15.95
2023-04-08T13:53:37.453Z,15.71
2023-04-08T13:56:09.836Z,15.22
2023-04-08T13:58:36.981Z,14.48
2023-04-08T14:01:29.387Z,13.75
2023-04-08T14:07:19.185Z,15.14
2023-04-08T14:09:46.669Z,15.48
2023-04-08T14:12:21.072Z,15.54
2023-04-08T14:14:48.046Z,14.98
2023-04-08T14:17:17.820Z,15.78
2023-04-08T14:20:21.414Z,16.49
2023-04-08T14:23:20.039Z,17.08
2023-04-08T14:25:46.875Z,17.03
2023-04-08T14:28:48.961Z,17.09
2023-04-08T14:31:18.768Z,16.61
2023-04-08T14:33:48.466Z,17.13
2023-04-08T14:36:15.814Z,17.39
2023-04-08T14:38:47.838Z,16.93
2023-04-08T14:41:20.614Z,17.42
2023-04-08T14:44:11.594Z,17.65
2023-04-08T14:46:38.719Z,17.17
2023-04-08T14:49:11.216Z,17.24
2023-04-08T14:51:53.351Z,16.79
2023-04-08T14:54:26.156Z,16.38
2023-04-08T14:57:19.178Z,16.40
2023-04-08T14:59:52.589Z,15.57
2023-04-08T15:02:22.585Z,15.99
2023-04-08T15:04:51.532Z,16.19
2023-04-08T15:07:21.449Z,15.94
2023-04-08T15:09:48.130Z,16.73
2023-04-08T15:12:20.465Z,17.03
2023-04-08T15:14:48.978Z,17.46
2023-04-08T15:17:26.730Z,17.32
2023-04-08T15:19:53.669Z,17.52
2023-04-08T15:22:21.149Z,17.48
2023-04-08T15:24:48.292Z,17.58
2023-04-08T15:27:21.536Z,16.88
2023-04-08T15:29:48.281Z,16.73
2023-04-08T15:32:24.452Z,16.71
2023-04-08T15:34:57.981Z,16.03
2023-04-08T15:37:25.195Z,15.68
2023-04-08T15:42:35.694Z,15.10
2023-04-08T15:45:15.002Z,14.83
2023-04-08T15:47:46.867Z,14.13
2023-04-08T15:50:19.795Z,14.41
2023-04-08T15:53:08.777Z,15.06
2023-04-08T15:55:54.301Z,14.70
2023-04-08T15:58:24.137Z,15.24
2023-04-08T16:01:16.866Z,14.92
2023-04-08T16:03:49.773Z,14.51
2023-04-08T16:06:34.820Z,13.94
2023-04-08T16:09:03.967Z,13.96
2023-04-08T16:11:30.773Z,13.83
2023-04-08T16:14:00.666Z,13.09
2023-04-08T16:16:29.741Z,12.58
2023-04-08T16:19:10.920Z,11.54
2023-04-08T16:21:57.896Z,10.92
2023-04-08T16:24:29.860Z,10.23
2023-04-08T16:27:09.396Z,10.20
2023-04-08T16:32:48.815Z,11.09
2023-04-08T16:35:37.253Z,11.04
2023-04-08T16:38:07.322Z,10.75
2023-04-08T16:40:50.353Z,11.10
2023-04-08T16:43:30.222Z,10.59
2023-04-08T16:46:25.455Z,10.44
2023-04-08T16:48:54.688Z,10.04
2023-04-08T16:52:12.241Z,9.56
2023-04-08T16:54:49.250Z,8.98
2023-04-08T16:57:51.375Z,8.68
2023-04-08T17:00:49.742Z,8.50
2023-04-08T17:03:22.293Z,8.32
2023-04-08T17:05:49.281Z,8.07
2023-04-08T17:08:36.569Z,7.91
2023-04-08T17:11:15.615Z,7.76
2023-04-08T17:13:49.116Z,7.54
2023-04-08T17:16:22.507Z,7.40
2023-04-08T17:18:50.852Z,7.24
2023-04-08T17:21:27.496Z,7.08
2023-04-08T17:24:26.258Z,6.95
2023-04-08T17:26:51.280Z,6.82
2023-04-08T17:29:24.842Z,6.65
2023-04-08T17:31:54.755Z,6.59
2023-04-08T17:34:30.004Z,6.51
2023-04-08T17:37:11.417Z,6.40
2023-04-08T17:39:51.729Z,6.29
2023-04-08T17:42:27.129Z,6.17
2023-04-08T17:44:54.226Z,6.08
2023-04-08T17:47:33.401Z,6.00
2023-04-08T17:50:02.761Z,5.85
2023-04-08T17:52:38.266Z,5.76
2023-04-08T17:55:09.583Z,5.64
2023-04-08T17:57:45.920Z,5.60
2023-04-08T18:00:14.606Z,5.51
2023-04-08T18:02:58.672Z,5.47
2023-04-08T18:05:27.503Z,5.40
2023-04-08T18:07:54.352Z,5.28
2023-04-08T18:10:25.710Z,5.16
2023-04-08T18:13:03.734Z,5.05
2023-04-08T18:15:43.614Z,5.00
2023-04-08T18:18:21.554Z,4.95
2023-04-08T18:20:48.456Z,4.86
2023-04-08T18:23:36.055Z,4.78
2023-04-08T18:26:04.054Z,4.69
2023-04-08T18:28:33.896Z,4.58
2023-04-08T18:31:01.017Z,4.45
2023-04-08T18:33:28.436Z,4.38
2023-04-08T18:35:56.477Z,4.34
2023-04-08T18:38:27.537Z,4.32
2023-04-08T18:40:54.390Z,4.34
2023-04-08T18:43:28.743Z,4.31
2023-04-08T18:45:55.646Z,4.30
2023-04-08T18:48:22.418Z,4.28
2023-04-08T18:50:49.228Z,4.16
2023-04-08T18:53:16.508Z,4.17
2023-04-08T18:55:46.342Z,4.10
2023-04-08T18:58:32.004Z,4.00
2023-04-08T19:00:58.977Z,3.95
2023-04-08T19:03:28.897Z,3.89
2023-04-08T19:06:01.227Z,3.79
2023-04-08T19:08:28.287Z,3.71
2023-04-08T19:10:55.072Z,3.69
2023-04-08T19:13:31.489Z,3.68
2023-04-08T19:16:05.921Z,3.65
2023-04-08T19:18:35.465Z,3.61
2023-04-08T19:21:11.843Z,3.45
2023-04-08T19:23:38.791Z,3.32
2023-04-08T19:26:14.736Z,3.34
2023-04-08T19:28:47.053Z,3.29
2023-04-08T19:31:20.331Z,3.40
2023-04-08T19:33:50.697Z,3.31
2023-04-08T19:36:17.838Z,3.39
2023-04-08T19:38:53.133Z,3.37
2023-04-08T19:41:21.335Z,3.28
2023-04-08T19:43:48.203Z,3.28
2023-04-08T19:46:20.060Z,3.23
2023-04-08T19:48:48.747Z,3.27
2023-04-08T19:51:22.480Z,3.25
2023-04-08T19:53:52.876Z,3.19
2023-04-08T19:56:22.484Z,3.22
2023-04-08T19:58:49.842Z,3.10
2023-04-08T20:01:17.602Z,3.05
2023-04-08T20:03:50.667Z,2.97
2023-04-08T20:06:30.240Z,2.96
2023-04-08T20:08:57.655Z,2.85
2023-04-08T20:11:33.538Z,2.85
2023-04-08T20:16:45.072Z,2.99
2023-04-08T20:19:18.261Z,2.96
2023-04-08T20:22:14.162Z,3.04
2023-04-08T20:24:47.927Z,3.17
2023-04-08T20:27:24.450Z,3.25
2023-04-08T20:30:00.983Z,3.33
2023-04-08T20:32:30.790Z,3.40
2023-04-08T20:35:02.711Z,3.45
2023-04-08T20:37:38.249Z,3.48
2023-04-08T20:40:09.216Z,3.52
2023-04-08T20:42:48.585Z,3.48
2023-04-08T20:45:27.270Z,3.47
2023-04-08T20:47:54.300Z,3.44
2023-04-08T20:50:21.313Z,3.40
2023-04-08T20:52:53.520Z,3.43
2023-04-08T20:55:22.982Z,3.41
2023-04-08T20:57:49.653Z,3.44
2023-04-08T21:00:23.889Z,3.47
2023-04-08T21:02:51.166Z,3.51
2023-04-08T21:05:18.439Z,3.53
2023-04-08T21:07:45.575Z,3.58
2023-04-08T21:10:26.411Z,3.61
2023-04-08T21:12:53.295Z,3.69
2023-04-08T21:15:21.481Z,3.74
2023-04-08T21:18:11.336Z,3.80
2023-04-08T21:20:43.257Z,3.84
2023-04-08T21:23:24.961Z,3.88
2023-04-08T21:26:03.597Z,3.93
2023-04-08T21:28:34.514Z,3.92
2023-04-08T21:31:20.390Z,3.95
2023-04-08T21:33:47.177Z,3.97
2023-04-08T21:36:30.011Z,4.01
2023-04-08T21:38:58.219Z,3.97
2023-04-08T21:41:25.028Z,3.97
2023-04-08T21:43:57.149Z,3.94
2023-04-08T21:46:24.174Z,3.93
2023-04-08T21:48:53.561Z,3.96
2023-04-08T21:51:20.700Z,3.98
2023-04-08T21:53:50.795Z,3.91
2023-04-08T21:56:20.911Z,3.90
2023-04-08T21:58:54.548Z,3.85
2023-04-08T22:01:30.868Z,3.81
2023-04-08T22:04:10.030Z,3.75
2023-04-08T22:06:55.460Z,3.69
2023-04-08T22:09:35.351Z,3.68
2023-04-08T22:12:21.472Z,3.60
2023-04-08T22:14:51.592Z,3.56
2023-04-08T22:17:21.113Z,3.53
2023-04-08T22:19:48.049Z,3.47
2023-04-08T22:22:24.382Z,3.44
2023-04-08T22:24:57.406Z,3.41
2023-04-08T22:27:28.942Z,3.38
2023-04-08T22:29:58.650Z,3.39
2023-04-08T22:32:25.385Z,3.38
2023-04-08T22:34:57.795Z,3.39
2023-04-08T22:37:24.811Z,3.40
2023-04-08T22:39:54.709Z,3.42
2023-04-08T22:42:30.050Z,3.43
2023-04-08T22:45:04.687Z,3.45
2023-04-08T22:47:31.626Z,3.50
2023-04-08T22:49:58.565Z,3.54
2023-04-08T22:52:25.514Z,3.54
2023-04-08T22:54:54.917Z,3.59
2023-04-08T22:57:27.137Z,3.59
2023-04-08T22:59:58.464Z,3.60
2023-04-08T23:02:25.438Z,3.61
2023-04-08T23:04:57.958Z,3.61
2023-04-08T23:07:24.831Z,3.62
2023-04-08T23:09:51.656Z,3.67
2023-04-08T23:12:27.747Z,3.69
2023-04-08T23:14:57.205Z,3.69
2023-04-08T23:17:51.269Z,3.73
2023-04-08T23:21:05.670Z,3.75
2023-04-08T23:23:32.598Z,3.75
2023-04-08T23:26:22.984Z,3.81
2023-04-08T23:28:52.853Z,3.80
2023-04-08T23:31:44.521Z,3.80
2023-04-08T23:34:11.850Z,3.79
2023-04-08T23:36:55.931Z,3.80
2023-04-08T23:39:22.806Z,3.74
2023-04-08T23:42:02.580Z,3.70
2023-04-08T23:44:32.362Z,3.66
2023-04-08T23:47:10.192Z,3.64
2023-04-08T23:49:38.247Z,3.68
2023-04-08T23:52:14.054Z,3.68
2023-04-08T23:54:51.323Z,3.71
2023-04-08T23:57:21.776Z,3.70
2023-04-08T23:59:48.813Z,3.68
